Time;durP1;ratioP1;P1;durP2;ratioP2;P2;SDS_P1;SDS_P2;PMS_P1;PMS_P2;Temp;Humidity;BMP_temperature;BMP_pressure;BME280_temperature;BME280_humidity;BME280_pressure;Samples;Min_cycle;Max_cycle;Signal;HPM_P1;HPM_P2
2023/06/19 00:01:34;;;;;;;4.85;3.25;;;;;;;;;;5058896;28;25162;-70
2023/06/19 00:04:00;;;;;;;4.50;2.60;;;;;;;;;;5058870;28;25081;-70
2023/06/19 00:06:26;;;;;;;4.50;2.50;;;;;;;;;;5059265;28;25052;-69
2023/06/19 00:08:52;;;;;;;3.08;2.45;;;;;;;;;;5058527;28;25059;-70
2023/06/19 00:11:18;;;;;;;2.78;2.13;;;;;;;;;;5056939;28;25066;-71
2023/06/19 00:13:44;;;;;;;2.58;2.03;;;;;;;;;;5057855;28;25085;-69
2023/06/19 00:16:10;;;;;;;3.67;1.90;;;;;;;;;;5060548;28;25148;-70
2023/06/19 00:18:39;;;;;;;2.83;2.03;;;;;;;;;;5058974;28;25071;-70
2023/06/19 00:21:06;;;;;;;2.92;1.98;;;;;;;;;;5060223;28;25074;-70
2023/06/19 00:23:32;;;;;;;3.85;2.13;;;;;;;;;;5059545;28;25071;-70
2023/06/19 00:26:00;;;;;;;4.45;2.10;;;;;;;;;;5046333;28;25117;-70
2023/06/19 00:28:26;;;;;;;3.05;1.70;;;;;;;;;;5059092;28;25072;-72
2023/06/19 00:30:52;;;;;;;4.75;2.00;;;;;;;;;;5060366;28;25057;-69
2023/06/19 00:33:18;;;;;;;4.50;2.03;;;;;;;;;;5059685;28;25148;-70
2023/06/19 00:35:44;;;;;;;6.32;2.72;;;;;;;;;;5045834;28;25083;-70
2023/06/19 00:38:11;;;;;;;3.40;2.42;;;;;;;;;;5059294;28;25076;-71
2023/06/19 00:40:38;;;;;;;4.10;2.35;;;;;;;;;;5060723;28;25090;-71
2023/06/19 00:43:04;;;;;;;2.83;2.15;;;;;;;;;;5058095;28;25117;-71
2023/06/19 00:45:30;;;;;;;3.78;2.80;;;;;;;;;;5049401;28;25124;-70
2023/06/19 00:47:58;;;;;;;6.10;2.85;;;;;;;;;;5064585;28;25042;-70
2023/06/19 00:50:24;;;;;;;3.90;2.72;;;;;;;;;;5061571;28;25058;-69
2023/06/19 00:52:50;;;;;;;5.53;2.53;;;;;;;;;;5055931;28;25091;-70
2023/06/19 00:55:17;;;;;;;4.32;2.17;;;;;;;;;;5057556;28;25082;-70
2023/06/19 00:57:43;;;;;;;10.00;3.20;;;;;;;;;;5039849;28;25115;-71
2023/06/19 01:00:12;;;;;;;4.57;2.70;;;;;;;;;;5045074;28;25064;-70
2023/06/19 01:02:38;;;;;;;6.65;2.83;;;;;;;;;;5042405;28;25072;-71
2023/06/19 01:05:05;;;;;;;6.10;2.97;;;;;;;;;;5038644;28;25133;-70
2023/06/19 01:07:43;;;;;;;7.30;3.33;;;;;;;;;;5042461;28;25054;-70
2023/06/19 01:10:14;;;;;;;5.30;3.08;;;;;;;;;;5062693;28;25100;-70
2023/06/19 01:12:50;;;;;;;7.50;3.50;;;;;;;;;;5060039;28;25064;-70
2023/06/19 01:15:16;;;;;;;5.60;3.53;;;;;;;;;;5061053;28;25082;-71
2023/06/19 01:17:42;;;;;;;4.25;3.58;;;;;;;;;;5060358;28;25041;-70
2023/06/19 01:20:10;;;;;;;4.97;3.30;;;;;;;;;;5060210;28;25112;-69
2023/06/19 01:22:36;;;;;;;5.68;4.20;;;;;;;;;;5060917;28;25060;-72
2023/06/19 01:25:04;;;;;;;5.60;3.92;;;;;;;;;;5060002;28;25131;-71
2023/06/19 01:27:30;;;;;;;6.43;3.65;;;;;;;;;;5060066;28;25094;-69
2023/06/19 01:29:57;;;;;;;6.70;4.80;;;;;;;;;;5061018;28;25122;-70
2023/06/19 01:32:31;;;;;;;6.32;3.85;;;;;;;;;;5060596;28;25097;-71
2023/06/19 01:34:58;;;;;;;6.20;4.30;;;;;;;;;;5059408;28;25056;-70
2023/06/19 01:37:28;;;;;;;8.55;4.28;;;;;;;;;;5059882;28;25176;-72
2023/06/19 01:39:56;;;;;;;6.53;4.60;;;;;;;;;;5063613;28;25113;-71
2023/06/19 01:42:22;;;;;;;9.60;4.82;;;;;;;;;;5058695;28;25058;-69
2023/06/19 01:44:51;;;;;;;7.95;4.65;;;;;;;;;;5060229;28;25095;-71
2023/06/19 01:47:19;;;;;;;5.82;4.68;;;;;;;;;;5058293;28;25071;-70
2023/06/19 01:49:46;;;;;;;7.30;4.35;;;;;;;;;;5059806;28;25048;-71
2023/06/19 01:52:13;;;;;;;5.28;4.78;;;;;;;;;;5059442;28;25078;-70
2023/06/19 01:54:39;;;;;;;6.78;3.97;;;;;;;;;;5060052;28;25060;-70
2023/06/19 01:57:05;;;;;;;9.73;4.45;;;;;;;;;;5062520;28;25065;-70
2023/06/19 01:59:31;;;;;;;6.97;5.55;;;;;;;;;;5063539;28;25069;-72
2023/06/19 02:01:57;;;;;;;8.85;4.90;;;;;;;;;;5057967;28;25066;-69
2023/06/19 02:04:23;;;;;;;7.85;4.80;;;;;;;;;;5060490;28;25070;-69
2023/06/19 02:06:49;;;;;;;9.55;4.88;;;;;;;;;;5066481;28;25068;-71
2023/06/19 02:09:15;;;;;;;5.75;4.93;;;;;;;;;;5061312;28;25070;-70
2023/06/19 02:11:41;;;;;;;6.88;5.63;;;;;;;;;;5064469;28;25152;-73
2023/06/19 02:14:08;;;;;;;9.07;5.57;;;;;;;;;;5059136;28;25067;-71
2023/06/19 02:16:34;;;;;;;8.85;5.55;;;;;;;;;;5048093;28;25063;-70
2023/06/19 02:19:00;;;;;;;9.00;6.20;;;;;;;;;;5064234;28;25067;-71
2023/06/19 02:21:26;;;;;;;7.95;6.25;;;;;;;;;;5060297;28;25054;-71
2023/06/19 02:23:52;;;;;;;8.88;6.38;;;;;;;;;;5064170;28;25047;-72
2023/06/19 02:26:18;;;;;;;11.77;7.45;;;;;;;;;;5065329;28;25075;-71
2023/06/19 02:28:44;;;;;;;7.75;6.60;;;;;;;;;;5062580;28;25054;-70
2023/06/19 02:31:10;;;;;;;11.25;7.82;;;;;;;;;;5062595;28;25084;-71
2023/06/19 02:33:36;;;;;;;11.23;7.20;;;;;;;;;;5061555;28;25068;-71
2023/06/19 02:36:03;;;;;;;11.77;7.68;;;;;;;;;;5063767;28;25064;-71
2023/06/19 02:38:29;;;;;;;9.93;8.02;;;;;;;;;;5049674;28;25040;-70
2023/06/19 02:40:57;;;;;;;10.65;8.00;;;;;;;;;;5063392;28;25074;-71
2023/06/19 02:43:23;;;;;;;14.15;9.30;;;;;;;;;;5053607;28;25059;-71
2023/06/19 02:45:49;;;;;;;13.43;10.45;;;;;;;;;;5064445;28;25127;-71
2023/06/19 02:48:16;;;;;;;17.15;11.35;;;;;;;;;;5063297;28;25059;-70
2023/06/19 02:50:42;;;;;;;20.35;11.80;;;;;;;;;;5049427;28;25090;-72
2023/06/19 02:53:08;;;;;;;19.08;12.65;;;;;;;;;;5058317;28;25090;-72
2023/06/19 02:55:34;;;;;;;17.60;12.38;;;;;;;;;;5062852;28;25074;-71
2023/06/19 02:58:00;;;;;;;17.15;11.48;;;;;;;;;;5063057;28;25150;-71
2023/06/19 03:00:28;;;;;;;15.70;11.02;;;;;;;;;;5063909;28;25057;-71
2023/06/19 03:02:54;;;;;;;15.38;11.32;;;;;;;;;;5063030;28;25145;-72
2023/06/19 03:05:20;;;;;;;17.98;12.10;;;;;;;;;;5066464;28;25055;-72
2023/06/19 03:07:46;;;;;;;19.58;12.15;;;;;;;;;;5066033;28;25084;-70
2023/06/19 03:10:12;;;;;;;18.98;13.60;;;;;;;;;;5075752;28;25067;-74
2023/06/19 03:12:38;;;;;;;19.23;14.73;;;;;;;;;;5070978;28;25093;-71
2023/06/19 03:15:04;;;;;;;22.23;14.43;;;;;;;;;;5068028;28;25080;-72
2023/06/19 03:17:30;;;;;;;21.58;14.77;;;;;;;;;;5066354;28;25140;-72
2023/06/19 03:19:56;;;;;;;19.83;14.52;;;;;;;;;;5063917;28;25055;-71
2023/06/19 03:22:22;;;;;;;20.85;15.57;;;;;;;;;;5065282;28;25085;-72
2023/06/19 03:24:48;;;;;;;23.35;14.85;;;;;;;;;;5070329;28;25058;-71
2023/06/19 03:27:15;;;;;;;20.80;13.65;;;;;;;;;;5073989;28;25066;-70
2023/06/19 03:29:41;;;;;;;19.00;14.32;;;;;;;;;;5072866;28;25075;-70
2023/06/19 03:32:07;;;;;;;18.38;13.25;;;;;;;;;;5060582;28;25094;-71
2023/06/19 03:34:33;;;;;;;19.90;14.93;;;;;;;;;;5063795;28;25094;-72
2023/06/19 03:36:59;;;;;;;20.23;12.77;;;;;;;;;;5063519;28;25078;-73
2023/06/19 03:39:26;;;;;;;15.50;9.63;;;;;;;;;;5047181;28;25048;-71
2023/06/19 03:41:57;;;;;;;11.50;7.15;;;;;;;;;;5061090;28;25161;-73
2023/06/19 03:44:23;;;;;;;8.55;6.30;;;;;;;;;;5064293;28;25143;-70
2023/06/19 03:46:50;;;;;;;6.60;4.95;;;;;;;;;;5063032;28;25087;-71
2023/06/19 03:49:16;;;;;;;7.60;4.95;;;;;;;;;;5065885;28;25084;-71
2023/06/19 03:51:42;;;;;;;5.03;4.22;;;;;;;;;;5066075;28;25055;-72
2023/06/19 03:54:08;;;;;;;6.53;4.53;;;;;;;;;;5063620;28;25130;-70
2023/06/19 03:56:34;;;;;;;5.68;4.63;;;;;;;;;;5061355;28;25069;-72
2023/06/19 03:59:00;;;;;;;6.10;5.05;;;;;;;;;;5061556;28;25062;-71
2023/06/19 04:01:26;;;;;;;14.57;11.13;;;;;;;;;;5062401;28;25137;-71
2023/06/19 04:03:52;;;;;;;14.80;11.35;;;;;;;;;;5061374;28;25083;-71
2023/06/19 04:06:18;;;;;;;17.98;12.75;;;;;;;;;;5060082;28;25065;-71
2023/06/19 04:08:44;;;;;;;21.17;14.48;;;;;;;;;;5059997;28;25180;-70
2023/06/19 04:11:10;;;;;;;19.80;14.18;;;;;;;;;;5053605;28;25075;-72
2023/06/19 04:13:36;;;;;;;22.05;15.55;;;;;;;;;;5064884;28;25050;-71
2023/06/19 04:16:02;;;;;;;21.00;15.00;;;;;;;;;;5066273;28;25052;-72
2023/06/19 04:18:28;;;;;;;20.20;15.43;;;;;;;;;;5062768;28;25056;-72
2023/06/19 04:20:54;;;;;;;17.75;12.45;;;;;;;;;;5061366;28;25078;-71
2023/06/19 04:23:20;;;;;;;16.08;11.27;;;;;;;;;;5064854;28;25082;-73
2023/06/19 04:25:46;;;;;;;15.40;11.45;;;;;;;;;;5062045;28;25057;-73
2023/06/19 04:28:12;;;;;;;16.98;12.70;;;;;;;;;;5060757;28;25056;-70
2023/06/19 04:30:42;;;;;;;15.63;10.85;;;;;;;;;;5064723;28;25131;-71
2023/06/19 04:33:08;;;;;;;17.65;11.50;;;;;;;;;;5061983;28;25068;-72
2023/06/19 04:35:39;;;;;;;14.93;10.35;;;;;;;;;;5062861;28;25067;-72
2023/06/19 04:38:05;;;;;;;14.95;10.90;;;;;;;;;;5062840;28;25058;-72
2023/06/19 04:40:32;;;;;;;16.58;12.05;;;;;;;;;;5061757;28;25061;-72
2023/06/19 04:42:58;;;;;;;25.50;15.88;;;;;;;;;;5060944;28;25220;-72
2023/06/19 04:45:24;;;;;;;26.65;16.75;;;;;;;;;;5062924;28;25099;-70
2023/06/19 04:47:50;;;;;;;23.65;15.27;;;;;;;;;;5060346;28;25070;-72
2023/06/19 04:50:16;;;;;;;22.20;15.68;;;;;;;;;;5060648;28;25058;-72
2023/06/19 04:52:42;;;;;;;18.77;13.93;;;;;;;;;;5059690;28;25106;-73
2023/06/19 04:55:11;;;;;;;18.17;13.02;;;;;;;;;;5060772;28;25072;-72
2023/06/19 04:57:37;;;;;;;18.42;11.77;;;;;;;;;;5060519;28;25095;-70
2023/06/19 05:00:07;;;;;;;17.42;12.13;;;;;;;;;;5046381;28;25076;-71
2023/06/19 05:02:33;;;;;;;13.20;10.10;;;;;;;;;;5061148;28;25162;-71
2023/06/19 05:05:03;;;;;;;16.08;10.10;;;;;;;;;;5062516;28;25066;-73
2023/06/19 05:07:31;;;;;;;12.82;10.05;;;;;;;;;;5061339;28;25141;-73
2023/06/19 05:09:58;;;;;;;12.68;7.93;;;;;;;;;;5060586;28;25131;-74
2023/06/19 05:12:24;;;;;;;11.65;8.02;;;;;;;;;;5061069;28;25106;-70
2023/06/19 05:14:50;;;;;;;12.82;9.15;;;;;;;;;;5060896;28;25097;-75
2023/06/19 05:17:16;;;;;;;12.27;9.02;;;;;;;;;;5058843;28;25076;-72
2023/06/19 05:19:42;;;;;;;12.32;9.98;;;;;;;;;;5061770;28;25144;-71
2023/06/19 05:22:08;;;;;;;16.55;10.82;;;;;;;;;;5061252;28;25142;-72
2023/06/19 05:24:34;;;;;;;17.65;13.00;;;;;;;;;;5062338;28;25048;-71
2023/06/19 05:27:00;;;;;;;18.80;15.02;;;;;;;;;;5063216;28;25060;-71
2023/06/19 05:29:26;;;;;;;24.10;15.60;;;;;;;;;;5039147;28;25070;-73
2023/06/19 05:31:52;;;;;;;21.92;15.63;;;;;;;;;;5048778;28;25103;-72
2023/06/19 05:34:18;;;;;;;19.42;15.65;;;;;;;;;;5054642;28;25100;-71
2023/06/19 05:36:46;;;;;;;22.60;17.08;;;;;;;;;;5064463;28;25057;-71
2023/06/19 05:39:12;;;;;;;19.50;14.88;;;;;;;;;;5051629;28;25073;-73
2023/06/19 05:41:38;;;;;;;21.83;15.55;;;;;;;;;;5045625;28;25060;-74
2023/06/19 05:44:04;;;;;;;24.20;15.73;;;;;;;;;;5021406;28;25076;-73
2023/06/19 05:46:30;;;;;;;25.10;17.00;;;;;;;;;;5045345;28;25125;-72
2023/06/19 05:48:56;;;;;;;23.05;15.57;;;;;;;;;;5041956;28;25076;-70
2023/06/19 05:51:22;;;;;;;22.95;15.50;;;;;;;;;;5045873;28;25086;-73
2023/06/19 05:53:51;;;;;;;24.70;16.75;;;;;;;;;;5044351;28;25065;-74
2023/06/19 05:56:17;;;;;;;22.70;16.10;;;;;;;;;;5043314;28;25059;-72
2023/06/19 05:58:44;;;;;;;26.45;18.33;;;;;;;;;;5044296;28;25050;-73
2023/06/19 06:01:10;;;;;;;30.17;18.90;;;;;;;;;;5044618;28;25071;-71
2023/06/19 06:03:36;;;;;;;32.28;21.33;;;;;;;;;;5044145;28;25089;-72
2023/06/19 06:06:03;;;;;;;30.05;20.83;;;;;;;;;;5044192;28;25106;-73
2023/06/19 06:08:32;;;;;;;27.13;19.42;;;;;;;;;;5045968;28;25060;-71
2023/06/19 06:10:58;;;;;;;29.10;18.85;;;;;;;;;;5045097;28;25073;-71
2023/06/19 06:13:25;;;;;;;28.48;19.55;;;;;;;;;;5041811;28;25062;-72
2023/06/19 06:15:51;;;;;;;27.67;18.58;;;;;;;;;;5044684;28;25051;-73
2023/06/19 06:18:17;;;;;;;29.50;18.98;;;;;;;;;;5042989;28;25064;-72
2023/06/19 06:20:43;;;;;;;24.33;17.95;;;;;;;;;;5045502;28;25044;-72
2023/06/19 06:23:09;;;;;;;32.67;21.20;;;;;;;;;;5044958;28;25065;-72
2023/06/19 06:25:35;;;;;;;33.20;19.70;;;;;;;;;;5046049;28;25062;-73
2023/06/19 06:28:01;;;;;;;33.05;20.98;;;;;;;;;;5061776;28;25084;-72
2023/06/19 06:30:30;;;;;;;33.83;21.00;;;;;;;;;;5065249;28;25072;-71
2023/06/19 06:32:55;;;;;;;33.72;22.15;;;;;;;;;;5060335;28;25136;-73
2023/06/19 06:35:21;;;;;;;33.75;22.08;;;;;;;;;;5061073;28;25048;-71
2023/06/19 06:37:49;;;;;;;34.25;21.27;;;;;;;;;;5063957;28;25160;-72
2023/06/19 06:40:15;;;;;;;37.58;21.02;;;;;;;;;;5064772;28;25101;-73
2023/06/19 06:42:41;;;;;;;29.83;21.08;;;;;;;;;;5044725;28;25080;-73
2023/06/19 06:45:08;;;;;;;30.08;19.80;;;;;;;;;;5061447;28;25156;-71
2023/06/19 06:47:35;;;;;;;30.85;19.88;;;;;;;;;;5062008;28;25141;-73
2023/06/19 06:50:01;;;;;;;34.30;20.42;;;;;;;;;;5062102;28;25051;-74
2023/06/19 06:52:27;;;;;;;33.58;20.67;;;;;;;;;;5060674;28;25124;-72
2023/06/19 06:54:53;;;;;;;31.00;19.42;;;;;;;;;;5055960;28;25159;-71
2023/06/19 06:57:19;;;;;;;28.02;19.40;;;;;;;;;;5053844;28;25073;-72
2023/06/19 06:59:45;;;;;;;29.23;18.80;;;;;;;;;;5055784;28;25053;-71
2023/06/19 07:02:11;;;;;;;31.55;20.35;;;;;;;;;;5059350;28;25079;-73
2023/06/19 07:04:37;;;;;;;30.75;18.88;;;;;;;;;;5056023;28;25108;-72
2023/06/19 07:07:05;;;;;;;31.00;18.90;;;;;;;;;;5055498;28;25055;-71
2023/06/19 07:09:31;;;;;;;29.05;20.33;;;;;;;;;;5056478;28;25073;-73
2023/06/19 07:11:57;;;;;;;31.33;20.98;;;;;;;;;;5055791;28;25141;-72
2023/06/19 07:14:23;;;;;;;34.30;23.60;;;;;;;;;;5053384;28;25056;-72
2023/06/19 07:16:50;;;;;;;40.20;24.42;;;;;;;;;;5059519;28;25060;-75
2023/06/19 07:19:16;;;;;;;38.53;24.95;;;;;;;;;;5075162;28;25078;-72
2023/06/19 07:21:42;;;;;;;38.95;23.30;;;;;;;;;;5061220;28;25070;-72
2023/06/19 07:24:09;;;;;;;32.85;22.52;;;;;;;;;;5043361;28;25075;-71
2023/06/19 07:26:34;;;;;;;33.05;22.10;;;;;;;;;;5060461;28;25059;-74
2023/06/19 07:29:00;;;;;;;33.58;22.17;;;;;;;;;;5055908;28;25062;-73
2023/06/19 07:31:26;;;;;;;40.97;22.52;;;;;;;;;;5055296;28;25058;-73
2023/06/19 07:33:52;;;;;;;30.58;20.75;;;;;;;;;;5054307;28;25057;-72
2023/06/19 07:36:18;;;;;;;34.78;23.05;;;;;;;;;;5036758;28;25072;-73
2023/06/19 07:38:45;;;;;;;32.90;20.73;;;;;;;;;;5053730;28;25058;-74
2023/06/19 07:41:11;;;;;;;34.65;22.05;;;;;;;;;;5054960;28;25061;-72
2023/06/19 07:43:37;;;;;;;32.15;21.05;;;;;;;;;;5056128;28;25131;-71
2023/06/19 07:46:03;;;;;;;35.58;21.10;;;;;;;;;;5060946;28;25073;-71
2023/06/19 07:48:29;;;;;;;36.40;21.15;;;;;;;;;;5042305;28;25140;-73
2023/06/19 07:50:55;;;;;;;28.92;19.98;;;;;;;;;;5054640;28;25054;-72
2023/06/19 07:53:21;;;;;;;30.33;18.83;;;;;;;;;;5054331;28;25054;-70
2023/06/19 07:55:47;;;;;;;32.45;20.35;;;;;;;;;;5055435;28;25082;-72
2023/06/19 07:58:13;;;;;;;31.25;18.73;;;;;;;;;;5054011;28;25143;-73
2023/06/19 08:00:39;;;;;;;29.33;18.40;;;;;;;;;;5054960;28;25090;-71
2023/06/19 08:03:05;;;;;;;29.42;19.42;;;;;;;;;;5052325;28;25073;-70
2023/06/19 08:05:32;;;;;;;30.08;18.90;;;;;;;;;;5052778;28;25071;-73
2023/06/19 08:07:59;;;;;;;29.30;17.55;;;;;;;;;;5053611;28;25061;-75
2023/06/19 08:10:25;;;;;;;27.17;17.27;;;;;;;;;;5055757;28;25089;-72
2023/06/19 08:12:51;;;;;;;28.30;16.67;;;;;;;;;;5055854;28;25093;-76
2023/06/19 08:15:17;;;;;;;28.50;15.52;;;;;;;;;;5059025;28;25082;-74
2023/06/19 08:17:43;;;;;;;25.75;15.45;;;;;;;;;;5056302;28;25082;-77
2023/06/19 08:20:10;;;;;;;23.77;16.02;;;;;;;;;;5055270;28;25167;-73
2023/06/19 08:22:36;;;;;;;29.15;16.65;;;;;;;;;;5053302;28;25090;-71
2023/06/19 08:25:03;;;;;;;24.30;15.48;;;;;;;;;;5052920;28;25052;-72
2023/06/19 08:27:29;;;;;;;27.55;17.98;;;;;;;;;;5053942;28;25056;-70
2023/06/19 08:29:55;;;;;;;28.08;17.98;;;;;;;;;;5056062;28;25062;-71
2023/06/19 08:32:21;;;;;;;24.95;17.45;;;;;;;;;;5051529;28;25057;-74
2023/06/19 08:34:47;;;;;;;25.73;16.50;;;;;;;;;;5052818;28;25106;-71
2023/06/19 08:37:13;;;;;;;29.38;15.88;;;;;;;;;;5054567;28;25064;-75
2023/06/19 08:39:39;;;;;;;25.73;16.83;;;;;;;;;;5056284;28;25059;-73
2023/06/19 08:42:09;;;;;;;22.75;15.23;;;;;;;;;;5057189;28;25073;-73
2023/06/19 08:44:35;;;;;;;21.90;16.08;;;;;;;;;;5065178;28;25070;-73
2023/06/19 08:47:05;;;;;;;21.98;14.73;;;;;;;;;;5057302;28;25061;-73
2023/06/19 08:49:33;;;;;;;25.67;14.45;;;;;;;;;;5057339;28;25072;-70
2023/06/19 08:51:59;;;;;;;20.63;15.45;;;;;;;;;;5057720;28;25054;-72
2023/06/19 08:54:25;;;;;;;18.92;13.63;;;;;;;;;;5040639;28;25066;-72
2023/06/19 08:56:53;;;;;;;25.23;14.93;;;;;;;;;;5058855;28;25158;-72
2023/06/19 08:59:19;;;;;;;22.98;15.70;;;;;;;;;;5053798;28;25064;-73
2023/06/19 09:01:51;;;;;;;25.52;15.60;;;;;;;;;;5055771;28;25053;-72
2023/06/19 09:04:19;;;;;;;22.42;14.48;;;;;;;;;;5053609;28;25143;-72
2023/06/19 09:06:52;;;;;;;24.25;14.05;;;;;;;;;;5038186;28;25074;-71
2023/06/19 09:09:22;;;;;;;27.25;14.70;;;;;;;;;;5033633;28;25051;-71
2023/06/19 09:12:05;;;;;;;24.35;15.73;;;;;;;;;;5036598;28;25070;-73
2023/06/19 09:14:34;;;;;;;22.75;14.88;;;;;;;;;;5033658;28;25145;-74
2023/06/19 09:17:01;;;;;;;21.80;14.13;;;;;;;;;;5035161;28;25062;-72
2023/06/19 09:19:27;;;;;;;23.90;14.63;;;;;;;;;;5036310;28;25063;-70
2023/06/19 09:21:53;;;;;;;20.33;13.20;;;;;;;;;;5035877;28;25054;-72
2023/06/19 09:24:19;;;;;;;22.60;12.93;;;;;;;;;;5034627;28;25056;-72
2023/06/19 09:26:45;;;;;;;23.83;13.27;;;;;;;;;;5034877;28;25142;-73
2023/06/19 09:29:12;;;;;;;22.35;14.15;;;;;;;;;;5035494;28;25147;-74
2023/06/19 09:31:41;;;;;;;18.75;12.93;;;;;;;;;;5034306;28;25101;-73
2023/06/19 09:34:07;;;;;;;22.73;13.77;;;;;;;;;;5037300;28;25079;-70
2023/06/19 09:36:34;;;;;;;26.23;14.35;;;;;;;;;;5054861;28;25074;-71
2023/06/19 09:39:01;;;;;;;23.58;14.68;;;;;;;;;;5060434;28;25065;-71
2023/06/19 09:41:28;;;;;;;19.05;12.88;;;;;;;;;;5060662;28;25061;-70
2023/06/19 09:43:59;;;;;;;20.40;12.75;;;;;;;;;;5062642;28;25088;-72
2023/06/19 09:46:33;;;;;;;24.25;13.65;;;;;;;;;;5063088;28;25135;-72
2023/06/19 09:49:01;;;;;;;22.02;13.40;;;;;;;;;;5061526;28;25051;-74
2023/06/19 09:51:33;;;;;;;25.25;14.02;;;;;;;;;;5058709;28;25094;-74
2023/06/19 09:54:01;;;;;;;19.40;12.55;;;;;;;;;;5059318;28;25059;-71
2023/06/19 09:56:28;;;;;;;24.08;12.57;;;;;;;;;;5062747;28;25099;-77
2023/06/19 09:58:55;;;;;;;17.60;11.43;;;;;;;;;;5060873;28;25064;-72
2023/06/19 10:01:21;;;;;;;15.90;11.55;;;;;;;;;;5068317;28;25094;-75
2023/06/19 10:03:47;;;;;;;19.38;12.15;;;;;;;;;;5041529;28;25105;-72
2023/06/19 10:06:15;;;;;;;20.30;12.05;;;;;;;;;;5048308;28;25075;-73
2023/06/19 10:08:42;;;;;;;18.17;11.55;;;;;;;;;;5046409;28;25051;-76
2023/06/19 10:11:09;;;;;;;15.65;10.85;;;;;;;;;;5031247;28;25138;-73
2023/06/19 10:13:38;;;;;;;16.73;11.50;;;;;;;;;;5043993;28;25120;-74
2023/06/19 10:16:04;;;;;;;15.73;10.82;;;;;;;;;;5063837;28;25103;-71
2023/06/19 10:18:45;;;;;;;18.80;11.50;;;;;;;;;;5043683;28;25059;-74
2023/06/19 10:21:17;;;;;;;16.77;11.35;;;;;;;;;;5064301;28;25132;-74
2023/06/19 10:23:43;;;;;;;21.20;11.60;;;;;;;;;;5053845;28;25049;-73
2023/06/19 10:26:16;;;;;;;19.15;12.52;;;;;;;;;;5062602;28;25082;-74
2023/06/19 10:28:49;;;;;;;19.48;10.98;;;;;;;;;;5043091;28;25142;-70
2023/06/19 10:31:17;;;;;;;19.63;12.50;;;;;;;;;;5063973;28;25084;-76
2023/06/19 10:33:43;;;;;;;16.60;11.55;;;;;;;;;;5068995;28;25075;-73
2023/06/19 10:36:16;;;;;;;20.58;11.63;;;;;;;;;;5056041;28;25063;-77
2023/06/19 10:38:47;;;;;;;17.33;11.30;;;;;;;;;;5047175;28;25051;-74
2023/06/19 10:41:16;;;;;;;20.13;11.93;;;;;;;;;;5054597;28;25064;-73
2023/06/19 10:43:42;;;;;;;19.92;12.88;;;;;;;;;;5044349;28;25055;-73
2023/06/19 10:46:08;;;;;;;18.65;11.63;;;;;;;;;;5042284;28;25059;-75
2023/06/19 10:48:34;;;;;;;14.43;9.63;;;;;;;;;;5040508;28;25148;-73
2023/06/19 10:51:00;;;;;;;15.25;10.85;;;;;;;;;;5056216;28;25069;-73
2023/06/19 10:53:29;;;;;;;17.85;12.70;;;;;;;;;;5041280;28;25059;-75
2023/06/19 10:56:02;;;;;;;16.90;10.85;;;;;;;;;;5041833;28;25076;-73
2023/06/19 10:58:29;;;;;;;16.75;11.73;;;;;;;;;;5028542;28;25083;-75
2023/06/19 11:00:55;;;;;;;18.10;12.02;;;;;;;;;;5052054;28;25097;-78
2023/06/19 11:03:21;;;;;;;19.35;12.85;;;;;;;;;;5045824;28;25055;-73
2023/06/19 11:05:48;;;;;;;18.33;12.60;;;;;;;;;;5052806;28;25148;-72
2023/06/19 11:08:18;;;;;;;21.92;13.48;;;;;;;;;;5057546;28;25163;-72
2023/06/19 11:10:44;;;;;;;14.95;11.02;;;;;;;;;;5046890;28;25071;-75
2023/06/19 11:13:14;;;;;;;22.13;10.85;;;;;;;;;;5031577;28;25106;-73
2023/06/19 11:15:40;;;;;;;13.98;9.25;;;;;;;;;;5035835;28;25066;-75
2023/06/19 11:18:06;;;;;;;14.40;10.02;;;;;;;;;;5038307;28;25078;-75
2023/06/19 11:20:31;;;;;;;16.30;9.77;;;;;;;;;;5045024;28;25084;-74
2023/06/19 11:22:58;;;;;;;16.17;11.35;;;;;;;;;;5046319;28;25054;-76
2023/06/19 11:25:26;;;;;;;20.15;10.82;;;;;;;;;;5052355;28;25073;-73
2023/06/19 11:27:52;;;;;;;15.88;11.00;;;;;;;;;;5061434;28;25070;-72
2023/06/19 11:30:22;;;;;;;14.75;10.25;;;;;;;;;;5053831;28;25073;-74
2023/06/19 11:32:50;;;;;;;14.15;10.25;;;;;;;;;;5049524;28;25074;-77
2023/06/19 11:35:17;;;;;;;20.25;12.70;;;;;;;;;;5044917;28;25089;-73
2023/06/19 11:37:44;;;;;;;15.07;10.45;;;;;;;;;;5040774;28;25098;-75
2023/06/19 11:40:12;;;;;;;18.13;11.60;;;;;;;;;;5056904;28;25086;-75
2023/06/19 11:42:46;;;;;;;15.63;9.00;;;;;;;;;;5063793;28;25090;-74
2023/06/19 11:45:12;;;;;;;16.17;10.52;;;;;;;;;;5060165;28;25070;-73
2023/06/19 11:47:38;;;;;;;15.10;9.23;;;;;;;;;;5048250;28;25083;-75
2023/06/19 11:50:05;;;;;;;14.80;9.35;;;;;;;;;;5046852;28;25060;-74
2023/06/19 11:52:31;;;;;;;10.88;7.50;;;;;;;;;;5055900;28;25091;-74
2023/06/19 11:54:57;;;;;;;16.80;9.38;;;;;;;;;;5038876;28;25083;-74
2023/06/19 11:57:23;;;;;;;16.35;9.13;;;;;;;;;;5050694;28;25048;-73
2023/06/19 11:59:49;;;;;;;17.95;11.43;;;;;;;;;;5027265;28;25131;-73
2023/06/19 12:02:15;;;;;;;16.73;11.20;;;;;;;;;;5037211;28;25155;-73
2023/06/19 12:04:41;;;;;;;16.30;10.80;;;;;;;;;;5023583;28;25068;-74
2023/06/19 12:07:07;;;;;;;13.27;10.23;;;;;;;;;;5036754;28;25130;-73
2023/06/19 12:09:34;;;;;;;11.25;8.27;;;;;;;;;;5036671;28;25117;-75
2023/06/19 12:12:00;;;;;;;12.35;8.45;;;;;;;;;;5039776;28;25059;-73
2023/06/19 12:14:26;;;;;;;16.50;10.60;;;;;;;;;;5039215;28;25059;-73
2023/06/19 12:16:52;;;;;;;16.10;9.48;;;;;;;;;;5037204;28;25092;-74
2023/06/19 12:19:18;;;;;;;15.50;7.93;;;;;;;;;;5042063;28;25100;-75
2023/06/19 12:21:44;;;;;;;10.00;6.97;;;;;;;;;;5040243;28;25048;-74
2023/06/19 12:24:10;;;;;;;10.82;7.85;;;;;;;;;;5039098;28;25051;-75
2023/06/19 12:26:36;;;;;;;15.10;9.10;;;;;;;;;;5035985;28;25077;-73
2023/06/19 12:29:06;;;;;;;18.25;10.02;;;;;;;;;;5036865;28;25070;-74
2023/06/19 12:31:33;;;;;;;12.52;9.15;;;;;;;;;;5041185;28;25063;-75
2023/06/19 12:33:59;;;;;;;14.88;8.07;;;;;;;;;;5040602;28;25060;-74
2023/06/19 12:36:25;;;;;;;15.27;8.88;;;;;;;;;;5040769;28;25104;-74
2023/06/19 12:38:53;;;;;;;10.35;7.30;;;;;;;;;;5052471;28;25058;-74
2023/06/19 12:41:19;;;;;;;11.43;8.85;;;;;;;;;;5057255;28;25092;-74
2023/06/19 12:43:46;;;;;;;10.85;7.55;;;;;;;;;;5052669;28;25089;-72
2023/06/19 12:46:12;;;;;;;15.65;9.23;;;;;;;;;;5036442;28;25060;-73
2023/06/19 12:48:38;;;;;;;13.15;7.40;;;;;;;;;;5035545;28;25064;-73
2023/06/19 12:51:04;;;;;;;11.32;6.88;;;;;;;;;;5035280;28;25085;-72
2023/06/19 12:53:30;;;;;;;17.02;9.27;;;;;;;;;;5035529;28;25130;-75
2023/06/19 12:55:59;;;;;;;13.95;8.82;;;;;;;;;;5037192;28;25078;-74
2023/06/19 12:58:25;;;;;;;13.30;8.63;;;;;;;;;;5033525;28;25074;-75
2023/06/19 13:00:51;;;;;;;12.55;7.90;;;;;;;;;;5036237;28;25376;-72
2023/06/19 13:03:18;;;;;;;10.05;6.68;;;;;;;;;;5033563;28;25077;-72
2023/06/19 13:05:44;;;;;;;10.57;6.25;;;;;;;;;;5037453;28;25051;-74
2023/06/19 13:08:10;;;;;;;11.75;8.15;;;;;;;;;;5035449;28;25061;-71
2023/06/19 13:10:36;;;;;;;10.20;6.90;;;;;;;;;;5037347;28;25078;-73
2023/06/19 13:13:02;;;;;;;9.93;6.95;;;;;;;;;;5033710;28;25076;-73
2023/06/19 13:15:28;;;;;;;9.05;6.53;;;;;;;;;;5035067;28;25101;-73
2023/06/19 13:17:54;;;;;;;10.90;6.53;;;;;;;;;;5032903;28;25052;-73
2023/06/19 13:20:20;;;;;;;12.57;6.28;;;;;;;;;;5034000;28;25071;-74
2023/06/19 13:22:46;;;;;;;8.30;6.57;;;;;;;;;;5038282;28;25089;-74
2023/06/19 13:25:12;;;;;;;13.98;7.50;;;;;;;;;;5038460;28;25076;-75
2023/06/19 13:27:38;;;;;;;10.18;6.97;;;;;;;;;;5041705;28;25056;-72
2023/06/19 13:30:05;;;;;;;10.73;7.50;;;;;;;;;;5036565;28;25143;-71
2023/06/19 13:32:30;;;;;;;10.52;6.13;;;;;;;;;;5038781;28;25143;-73
2023/06/19 13:34:56;;;;;;;12.10;5.60;;;;;;;;;;5035433;28;25067;-73
2023/06/19 13:37:23;;;;;;;8.77;6.10;;;;;;;;;;5039468;28;25087;-72
2023/06/19 13:39:49;;;;;;;9.75;6.07;;;;;;;;;;5045025;28;25069;-71
2023/06/19 13:42:15;;;;;;;13.68;6.68;;;;;;;;;;5059098;28;25078;-72
2023/06/19 13:44:41;;;;;;;10.80;7.20;;;;;;;;;;5044525;28;25059;-73
2023/06/19 13:47:07;;;;;;;8.98;6.47;;;;;;;;;;5044042;28;25094;-72
2023/06/19 13:49:33;;;;;;;9.95;6.55;;;;;;;;;;5043969;28;25064;-73
2023/06/19 13:51:59;;;;;;;9.27;5.97;;;;;;;;;;5057575;28;25057;-72
2023/06/19 13:54:25;;;;;;;8.43;5.13;;;;;;;;;;5054919;28;25088;-74
2023/06/19 13:56:51;;;;;;;7.40;5.10;;;;;;;;;;5038811;28;25071;-72
2023/06/19 13:59:17;;;;;;;6.85;4.68;;;;;;;;;;5037599;28;25069;-71
2023/06/19 14:01:43;;;;;;;9.82;5.45;;;;;;;;;;5058462;28;25056;-73
2023/06/19 14:04:09;;;;;;;10.23;6.38;;;;;;;;;;5067990;28;25074;-73
2023/06/19 14:06:37;;;;;;;8.57;6.28;;;;;;;;;;5066103;28;25132;-73
2023/06/19 14:09:03;;;;;;;9.25;6.32;;;;;;;;;;5066475;28;25092;-71
2023/06/19 14:11:29;;;;;;;9.55;5.75;;;;;;;;;;5065730;28;25062;-74
2023/06/19 14:13:55;;;;;;;11.40;5.45;;;;;;;;;;5064392;28;25071;-75
2023/06/19 14:16:21;;;;;;;9.45;5.38;;;;;;;;;;5064991;28;25066;-73
2023/06/19 14:18:47;;;;;;;9.50;4.65;;;;;;;;;;5061873;28;25083;-70
2023/06/19 14:21:13;;;;;;;8.98;5.50;;;;;;;;;;5064868;28;25057;-72
2023/06/19 14:23:43;;;;;;;8.10;5.00;;;;;;;;;;5063605;28;25143;-71